sensor_id;sensor_type;location;lat;lon;timestamp;P1;durP1;ratioP1;P2;durP2;ratioP2
49728;SDS011;66333;49.798;10.968;2023-08-07T00:00:51;1.83;;;0.47;;
49728;SDS011;66333;49.798;10.968;2023-08-07T00:03:22;1.60;;;0.50;;
49728;SDS011;66333;49.798;10.968;2023-08-07T00:06:03;1.75;;;0.50;;
49728;SDS011;66333;49.798;10.968;2023-08-07T00:08:33;1.95;;;0.60;;
49728;SDS011;66333;49.798;10.968;2023-08-07T00:11:06;1.50;;;0.50;;
49728;SDS011;66333;49.798;10.968;2023-08-07T00:13:42;1.67;;;0.50;;
49728;SDS011;66333;49.798;10.968;2023-08-07T00:16:09;2.20;;;0.70;;
49728;SDS011;66333;49.798;10.968;2023-08-07T00:18:39;1.50;;;0.40;;
49728;SDS011;66333;49.798;10.968;2023-08-07T00:21:19;1.95;;;0.50;;
49728;SDS011;66333;49.798;10.968;2023-08-07T00:23:49;1.80;;;0.50;;
49728;SDS011;66333;49.798;10.968;2023-08-07T00:26:22;2.10;;;0.52;;
49728;SDS011;66333;49.798;10.968;2023-08-07T00:28:52;1.85;;;0.55;;
49728;SDS011;66333;49.798;10.968;2023-08-07T00:31:20;1.98;;;0.60;;
49728;SDS011;66333;49.798;10.968;2023-08-07T00:33:51;1.67;;;0.50;;
49728;SDS011;66333;49.798;10.968;2023-08-07T00:36:44;2.08;;;0.60;;
49728;SDS011;66333;49.798;10.968;2023-08-07T00:39:15;1.92;;;0.57;;
49728;SDS011;66333;49.798;10.968;2023-08-07T00:41:45;2.13;;;0.60;;
49728;SDS011;66333;49.798;10.968;2023-08-07T00:44:15;1.75;;;0.50;;
49728;SDS011;66333;49.798;10.968;2023-08-07T00:46:45;1.77;;;0.50;;
49728;SDS011;66333;49.798;10.968;2023-08-07T00:49:21;1.70;;;0.45;;
49728;SDS011;66333;49.798;10.968;2023-08-07T00:52:05;2.05;;;0.57;;
49728;SDS011;66333;49.798;10.968;2023-08-07T00:54:36;1.75;;;0.40;;
49728;SDS011;66333;49.798;10.968;2023-08-07T00:57:08;1.50;;;0.40;;
49728;SDS011;66333;49.798;10.968;2023-08-07T00:59:37;1.67;;;0.40;;
49728;SDS011;66333;49.798;10.968;2023-08-07T01:02:11;1.83;;;0.50;;
49728;SDS011;66333;49.798;10.968;2023-08-07T01:04:43;1.50;;;0.50;;
49728;SDS011;66333;49.798;10.968;2023-08-07T01:07:25;1.30;;;0.43;;
49728;SDS011;66333;49.798;10.968;2023-08-07T01:09:53;1.88;;;0.50;;
49728;SDS011;66333;49.798;10.968;2023-08-07T01:12:33;1.98;;;0.50;;
49728;SDS011;66333;49.798;10.968;2023-08-07T01:15:13;2.08;;;0.50;;
49728;SDS011;66333;49.798;10.968;2023-08-07T01:17:46;2.25;;;0.70;;
49728;SDS011;66333;49.798;10.968;2023-08-07T01:20:18;1.60;;;0.50;;
49728;SDS011;66333;49.798;10.968;2023-08-07T01:22:58;1.52;;;0.50;;
49728;SDS011;66333;49.798;10.968;2023-08-07T01:25:31;2.20;;;0.50;;
49728;SDS011;66333;49.798;10.968;2023-08-07T01:28:07;1.73;;;0.60;;
49728;SDS011;66333;49.798;10.968;2023-08-07T01:30:48;1.48;;;0.40;;
49728;SDS011;66333;49.798;10.968;2023-08-07T01:33:22;2.08;;;0.60;;
49728;SDS011;66333;49.798;10.968;2023-08-07T01:36:01;1.67;;;0.50;;
49728;SDS011;66333;49.798;10.968;2023-08-07T01:38:37;2.33;;;0.60;;
49728;SDS011;66333;49.798;10.968;2023-08-07T01:41:06;1.65;;;0.50;;
49728;SDS011;66333;49.798;10.968;2023-08-07T01:43:34;1.95;;;0.60;;
49728;SDS011;66333;49.798;10.968;2023-08-07T01:46:04;2.08;;;0.60;;
49728;SDS011;66333;49.798;10.968;2023-08-07T01:48:35;2.10;;;0.60;;
49728;SDS011;66333;49.798;10.968;2023-08-07T01:51:02;2.15;;;0.57;;
49728;SDS011;66333;49.798;10.968;2023-08-07T01:53:30;2.10;;;0.57;;
49728;SDS011;66333;49.798;10.968;2023-08-07T01:56:02;2.30;;;0.68;;
49728;SDS011;66333;49.798;10.968;2023-08-07T01:58:30;2.08;;;0.55;;
49728;SDS011;66333;49.798;10.968;2023-08-07T02:01:05;3.20;;;0.80;;
49728;SDS011;66333;49.798;10.968;2023-08-07T02:03:35;1.80;;;0.40;;
49728;SDS011;66333;49.798;10.968;2023-08-07T02:06:05;2.13;;;0.50;;
49728;SDS011;66333;49.798;10.968;2023-08-07T02:08:35;1.77;;;0.60;;
49728;SDS011;66333;49.798;10.968;2023-08-07T02:11:08;1.67;;;0.50;;
49728;SDS011;66333;49.798;10.968;2023-08-07T02:13:36;2.28;;;0.55;;
49728;SDS011;66333;49.798;10.968;2023-08-07T02:16:06;2.10;;;0.60;;
49728;SDS011;66333;49.798;10.968;2023-08-07T02:18:35;2.05;;;0.50;;
49728;SDS011;66333;49.798;10.968;2023-08-07T02:21:06;2.42;;;0.68;;
49728;SDS011;66333;49.798;10.968;2023-08-07T02:23:34;2.33;;;0.63;;
49728;SDS011;66333;49.798;10.968;2023-08-07T02:26:07;1.80;;;0.57;;
49728;SDS011;66333;49.798;10.968;2023-08-07T02:28:36;2.05;;;0.55;;
49728;SDS011;66333;49.798;10.968;2023-08-07T02:31:17;2.00;;;0.50;;
49728;SDS011;66333;49.798;10.968;2023-08-07T02:33:48;2.10;;;0.70;;
49728;SDS011;66333;49.798;10.968;2023-08-07T02:36:19;2.08;;;0.52;;
49728;SDS011;66333;49.798;10.968;2023-08-07T02:39:00;1.48;;;0.50;;
49728;SDS011;66333;49.798;10.968;2023-08-07T02:41:35;2.03;;;0.60;;
49728;SDS011;66333;49.798;10.968;2023-08-07T02:44:04;1.45;;;0.50;;
49728;SDS011;66333;49.798;10.968;2023-08-07T02:46:45;2.03;;;0.60;;
49728;SDS011;66333;49.798;10.968;2023-08-07T02:49:20;2.13;;;0.60;;
49728;SDS011;66333;49.798;10.968;2023-08-07T02:51:49;2.00;;;0.50;;
49728;SDS011;66333;49.798;10.968;2023-08-07T02:54:17;1.42;;;0.40;;
49728;SDS011;66333;49.798;10.968;2023-08-07T02:57:01;2.22;;;0.55;;
49728;SDS011;66333;49.798;10.968;2023-08-07T02:59:31;2.50;;;0.50;;
49728;SDS011;66333;49.798;10.968;2023-08-07T03:02:01;2.08;;;0.60;;
49728;SDS011;66333;49.798;10.968;2023-08-07T03:04:31;1.65;;;0.50;;
49728;SDS011;66333;49.798;10.968;2023-08-07T03:07:01;1.55;;;0.47;;
49728;SDS011;66333;49.798;10.968;2023-08-07T03:09:31;4.40;;;0.65;;
49728;SDS011;66333;49.798;10.968;2023-08-07T03:12:12;2.35;;;0.63;;
49728;SDS011;66333;49.798;10.968;2023-08-07T03:14:42;2.85;;;1.40;;
49728;SDS011;66333;49.798;10.968;2023-08-07T03:17:12;2.35;;;0.60;;
49728;SDS011;66333;49.798;10.968;2023-08-07T03:19:41;1.80;;;0.70;;
49728;SDS011;66333;49.798;10.968;2023-08-07T03:22:10;1.77;;;0.43;;
49728;SDS011;66333;49.798;10.968;2023-08-07T03:24:40;1.40;;;0.50;;
49728;SDS011;66333;49.798;10.968;2023-08-07T03:27:26;2.25;;;0.50;;
49728;SDS011;66333;49.798;10.968;2023-08-07T03:29:56;1.85;;;0.52;;
49728;SDS011;66333;49.798;10.968;2023-08-07T03:32:26;2.60;;;0.60;;
49728;SDS011;66333;49.798;10.968;2023-08-07T03:34:56;2.20;;;0.45;;
49728;SDS011;66333;49.798;10.968;2023-08-07T03:37:26;1.42;;;0.50;;
49728;SDS011;66333;49.798;10.968;2023-08-07T03:39:56;2.30;;;0.60;;
49728;SDS011;66333;49.798;10.968;2023-08-07T03:42:43;2.13;;;0.50;;
49728;SDS011;66333;49.798;10.968;2023-08-07T03:45:12;1.80;;;0.50;;
49728;SDS011;66333;49.798;10.968;2023-08-07T03:47:41;2.83;;;0.50;;
49728;SDS011;66333;49.798;10.968;2023-08-07T03:50:16;1.42;;;0.40;;
49728;SDS011;66333;49.798;10.968;2023-08-07T03:52:47;1.90;;;0.50;;
49728;SDS011;66333;49.798;10.968;2023-08-07T03:55:23;2.30;;;0.52;;
49728;SDS011;66333;49.798;10.968;2023-08-07T03:57:55;1.75;;;0.60;;
49728;SDS011;66333;49.798;10.968;2023-08-07T04:00:23;1.45;;;0.50;;
49728;SDS011;66333;49.798;10.968;2023-08-07T04:02:54;2.10;;;0.40;;
49728;SDS011;66333;49.798;10.968;2023-08-07T04:05:24;1.60;;;0.50;;
49728;SDS011;66333;49.798;10.968;2023-08-07T04:07:54;1.83;;;0.43;;
49728;SDS011;66333;49.798;10.968;2023-08-07T04:10:24;1.70;;;0.47;;
49728;SDS011;66333;49.798;10.968;2023-08-07T04:12:59;1.80;;;0.55;;
49728;SDS011;66333;49.798;10.968;2023-08-07T04:15:28;1.70;;;0.50;;
49728;SDS011;66333;49.798;10.968;2023-08-07T04:17:56;2.25;;;0.50;;
49728;SDS011;66333;49.798;10.968;2023-08-07T04:20:27;2.45;;;0.50;;
49728;SDS011;66333;49.798;10.968;2023-08-07T04:22:57;2.22;;;0.60;;
49728;SDS011;66333;49.798;10.968;2023-08-07T04:25:28;2.03;;;0.50;;
49728;SDS011;66333;49.798;10.968;2023-08-07T04:28:00;1.83;;;0.50;;
49728;SDS011;66333;49.798;10.968;2023-08-07T04:30:31;1.98;;;0.60;;
49728;SDS011;66333;49.798;10.968;2023-08-07T04:33:01;1.63;;;0.50;;
49728;SDS011;66333;49.798;10.968;2023-08-07T04:35:31;2.70;;;0.70;;
49728;SDS011;66333;49.798;10.968;2023-08-07T04:38:12;2.05;;;0.50;;
49728;SDS011;66333;49.798;10.968;2023-08-07T04:40:43;2.00;;;0.50;;
49728;SDS011;66333;49.798;10.968;2023-08-07T04:43:22;1.90;;;0.50;;
49728;SDS011;66333;49.798;10.968;2023-08-07T04:45:57;2.42;;;0.57;;
49728;SDS011;66333;49.798;10.968;2023-08-07T04:48:28;1.73;;;0.50;;
49728;SDS011;66333;49.798;10.968;2023-08-07T04:51:05;2.65;;;0.60;;
49728;SDS011;66333;49.798;10.968;2023-08-07T04:53:35;2.13;;;0.60;;
49728;SDS011;66333;49.798;10.968;2023-08-07T04:56:05;2.17;;;0.60;;
49728;SDS011;66333;49.798;10.968;2023-08-07T04:58:37;2.28;;;0.80;;
49728;SDS011;66333;49.798;10.968;2023-08-07T05:01:12;1.98;;;0.68;;
49728;SDS011;66333;49.798;10.968;2023-08-07T05:03:42;1.63;;;0.50;;
49728;SDS011;66333;49.798;10.968;2023-08-07T05:06:23;1.65;;;0.40;;
49728;SDS011;66333;49.798;10.968;2023-08-07T05:08:51;2.10;;;0.55;;
49728;SDS011;66333;49.798;10.968;2023-08-07T05:11:19;1.77;;;0.57;;
49728;SDS011;66333;49.798;10.968;2023-08-07T05:13:52;1.35;;;0.40;;
49728;SDS011;66333;49.798;10.968;2023-08-07T05:16:32;2.63;;;0.60;;
49728;SDS011;66333;49.798;10.968;2023-08-07T05:19:13;1.42;;;0.47;;
49728;SDS011;66333;49.798;10.968;2023-08-07T05:21:44;2.42;;;0.60;;
49728;SDS011;66333;49.798;10.968;2023-08-07T05:24:16;3.00;;;0.63;;
49728;SDS011;66333;49.798;10.968;2023-08-07T05:26:53;1.75;;;0.50;;
49728;SDS011;66333;49.798;10.968;2023-08-07T05:29:25;3.17;;;0.80;;
49728;SDS011;66333;49.798;10.968;2023-08-07T05:31:54;2.47;;;0.60;;
49728;SDS011;66333;49.798;10.968;2023-08-07T05:34:24;1.77;;;0.50;;
49728;SDS011;66333;49.798;10.968;2023-08-07T05:36:54;2.15;;;0.80;;
49728;SDS011;66333;49.798;10.968;2023-08-07T05:39:24;3.20;;;0.70;;
49728;SDS011;66333;49.798;10.968;2023-08-07T05:41:54;2.45;;;0.60;;
49728;SDS011;66333;49.798;10.968;2023-08-07T05:44:36;1.77;;;0.50;;
49728;SDS011;66333;49.798;10.968;2023-08-07T05:47:05;2.03;;;0.60;;
49728;SDS011;66333;49.798;10.968;2023-08-07T05:49:37;2.50;;;0.60;;
49728;SDS011;66333;49.798;10.968;2023-08-07T05:52:07;2.20;;;0.57;;
49728;SDS011;66333;49.798;10.968;2023-08-07T05:54:37;2.35;;;0.68;;
49728;SDS011;66333;49.798;10.968;2023-08-07T05:57:04;2.50;;;0.77;;
49728;SDS011;66333;49.798;10.968;2023-08-07T05:59:37;2.58;;;0.70;;
49728;SDS011;66333;49.798;10.968;2023-08-07T06:02:07;2.70;;;0.80;;
49728;SDS011;66333;49.798;10.968;2023-08-07T06:04:36;2.20;;;0.68;;
49728;SDS011;66333;49.798;10.968;2023-08-07T06:07:06;2.88;;;0.77;;
49728;SDS011;66333;49.798;10.968;2023-08-07T06:09:36;3.22;;;0.70;;
49728;SDS011;66333;49.798;10.968;2023-08-07T06:12:07;2.38;;;0.70;;
49728;SDS011;66333;49.798;10.968;2023-08-07T06:14:43;2.20;;;0.60;;
49728;SDS011;66333;49.798;10.968;2023-08-07T06:17:13;2.70;;;0.80;;
49728;SDS011;66333;49.798;10.968;2023-08-07T06:19:42;3.17;;;0.80;;
49728;SDS011;66333;49.798;10.968;2023-08-07T06:22:12;2.78;;;0.70;;
49728;SDS011;66333;49.798;10.968;2023-08-07T06:24:44;3.42;;;0.70;;
49728;SDS011;66333;49.798;10.968;2023-08-07T06:27:15;2.58;;;0.70;;
49728;SDS011;66333;49.798;10.968;2023-08-07T06:29:56;2.90;;;0.90;;
49728;SDS011;66333;49.798;10.968;2023-08-07T06:32:24;2.08;;;0.60;;
49728;SDS011;66333;49.798;10.968;2023-08-07T06:34:54;2.90;;;0.73;;
49728;SDS011;66333;49.798;10.968;2023-08-07T06:37:25;2.33;;;0.65;;
49728;SDS011;66333;49.798;10.968;2023-08-07T06:39:55;2.70;;;0.80;;
49728;SDS011;66333;49.798;10.968;2023-08-07T06:42:25;3.05;;;0.80;;
49728;SDS011;66333;49.798;10.968;2023-08-07T06:45:09;2.63;;;0.90;;
49728;SDS011;66333;49.798;10.968;2023-08-07T06:47:39;2.80;;;0.70;;
49728;SDS011;66333;49.798;10.968;2023-08-07T06:50:21;2.28;;;0.70;;
49728;SDS011;66333;49.798;10.968;2023-08-07T06:52:48;2.17;;;0.80;;
49728;SDS011;66333;49.798;10.968;2023-08-07T06:55:20;2.70;;;0.70;;
49728;SDS011;66333;49.798;10.968;2023-08-07T06:57:49;2.30;;;0.77;;
49728;SDS011;66333;49.798;10.968;2023-08-07T07:00:25;3.00;;;0.93;;
49728;SDS011;66333;49.798;10.968;2023-08-07T07:02:53;3.25;;;0.80;;
49728;SDS011;66333;49.798;10.968;2023-08-07T07:05:22;2.55;;;0.73;;
49728;SDS011;66333;49.798;10.968;2023-08-07T07:07:58;2.70;;;0.80;;
49728;SDS011;66333;49.798;10.968;2023-08-07T07:10:29;2.28;;;0.70;;
49728;SDS011;66333;49.798;10.968;2023-08-07T07:12:59;3.22;;;0.90;;
49728;SDS011;66333;49.798;10.968;2023-08-07T07:15:40;3.15;;;1.00;;
49728;SDS011;66333;49.798;10.968;2023-08-07T07:18:10;2.63;;;0.90;;
49728;SDS011;66333;49.798;10.968;2023-08-07T07:20:40;3.72;;;0.95;;
49728;SDS011;66333;49.798;10.968;2023-08-07T07:23:10;2.95;;;0.90;;
49728;SDS011;66333;49.798;10.968;2023-08-07T07:25:38;2.90;;;0.90;;
49728;SDS011;66333;49.798;10.968;2023-08-07T07:28:08;3.67;;;0.82;;
49728;SDS011;66333;49.798;10.968;2023-08-07T07:30:50;3.17;;;0.80;;
49728;SDS011;66333;49.798;10.968;2023-08-07T07:33:18;3.08;;;0.80;;
49728;SDS011;66333;49.798;10.968;2023-08-07T07:35:48;2.83;;;0.80;;
49728;SDS011;66333;49.798;10.968;2023-08-07T07:38:18;2.38;;;0.80;;
49728;SDS011;66333;49.798;10.968;2023-08-07T07:41:01;2.60;;;0.80;;
49728;SDS011;66333;49.798;10.968;2023-08-07T07:43:31;3.10;;;0.88;;
49728;SDS011;66333;49.798;10.968;2023-08-07T07:46:05;3.20;;;1.00;;
49728;SDS011;66333;49.798;10.968;2023-08-07T07:48:34;3.30;;;0.80;;
49728;SDS011;66333;49.798;10.968;2023-08-07T07:51:09;2.92;;;1.08;;
49728;SDS011;66333;49.798;10.968;2023-08-07T07:53:43;3.53;;;0.90;;
49728;SDS011;66333;49.798;10.968;2023-08-07T07:56:10;3.00;;;0.90;;
49728;SDS011;66333;49.798;10.968;2023-08-07T07:58:40;2.92;;;0.90;;
49728;SDS011;66333;49.798;10.968;2023-08-07T08:01:22;3.67;;;1.00;;
49728;SDS011;66333;49.798;10.968;2023-08-07T08:03:51;3.17;;;0.88;;
49728;SDS011;66333;49.798;10.968;2023-08-07T08:06:21;3.10;;;0.90;;
49728;SDS011;66333;49.798;10.968;2023-08-07T08:08:51;3.72;;;1.15;;
49728;SDS011;66333;49.798;10.968;2023-08-07T08:11:21;3.42;;;0.90;;
49728;SDS011;66333;49.798;10.968;2023-08-07T08:13:51;2.60;;;0.80;;
49728;SDS011;66333;49.798;10.968;2023-08-07T08:16:35;3.60;;;0.85;;
49728;SDS011;66333;49.798;10.968;2023-08-07T08:19:05;2.72;;;0.80;;
49728;SDS011;66333;49.798;10.968;2023-08-07T08:21:36;3.10;;;1.00;;
49728;SDS011;66333;49.798;10.968;2023-08-07T08:24:13;2.80;;;0.90;;
49728;SDS011;66333;49.798;10.968;2023-08-07T08:26:43;2.60;;;0.85;;
49728;SDS011;66333;49.798;10.968;2023-08-07T08:29:14;3.00;;;1.05;;
49728;SDS011;66333;49.798;10.968;2023-08-07T08:31:47;3.10;;;1.10;;
49728;SDS011;66333;49.798;10.968;2023-08-07T08:34:19;4.55;;;1.40;;
49728;SDS011;66333;49.798;10.968;2023-08-07T08:36:50;3.72;;;1.08;;
49728;SDS011;66333;49.798;10.968;2023-08-07T08:39:20;4.28;;;1.20;;
49728;SDS011;66333;49.798;10.968;2023-08-07T08:41:49;3.22;;;0.90;;
49728;SDS011;66333;49.798;10.968;2023-08-07T08:44:19;3.28;;;1.10;;
49728;SDS011;66333;49.798;10.968;2023-08-07T08:47:01;3.65;;;1.15;;
49728;SDS011;66333;49.798;10.968;2023-08-07T08:49:33;3.80;;;1.33;;
49728;SDS011;66333;49.798;10.968;2023-08-07T08:52:06;4.03;;;1.10;;
49728;SDS011;66333;49.798;10.968;2023-08-07T08:54:35;3.53;;;1.05;;
49728;SDS011;66333;49.798;10.968;2023-08-07T08:57:06;3.85;;;1.00;;
49728;SDS011;66333;49.798;10.968;2023-08-07T08:59:37;3.42;;;1.10;;
49728;SDS011;66333;49.798;10.968;2023-08-07T09:02:21;4.38;;;1.27;;
49728;SDS011;66333;49.798;10.968;2023-08-07T09:04:52;4.03;;;1.20;;
49728;SDS011;66333;49.798;10.968;2023-08-07T09:07:21;2.70;;;0.93;;
49728;SDS011;66333;49.798;10.968;2023-08-07T09:09:52;3.85;;;1.05;;
49728;SDS011;66333;49.798;10.968;2023-08-07T09:12:21;3.13;;;1.10;;
49728;SDS011;66333;49.798;10.968;2023-08-07T09:14:54;3.20;;;1.10;;
49728;SDS011;66333;49.798;10.968;2023-08-07T09:20:13;3.33;;;1.10;;
49728;SDS011;66333;49.798;10.968;2023-08-07T09:22:43;4.05;;;1.20;;
49728;SDS011;66333;49.798;10.968;2023-08-07T09:25:14;4.07;;;1.17;;
49728;SDS011;66333;49.798;10.968;2023-08-07T09:27:52;3.08;;;1.00;;
49728;SDS011;66333;49.798;10.968;2023-08-07T09:30:32;3.50;;;1.25;;
49728;SDS011;66333;49.798;10.968;2023-08-07T09:33:13;3.40;;;1.05;;
49728;SDS011;66333;49.798;10.968;2023-08-07T09:35:43;3.30;;;1.17;;
49728;SDS011;66333;49.798;10.968;2023-08-07T09:38:31;3.47;;;1.10;;
49728;SDS011;66333;49.798;10.968;2023-08-07T09:41:03;3.20;;;1.10;;
49728;SDS011;66333;49.798;10.968;2023-08-07T09:43:33;3.28;;;1.17;;
49728;SDS011;66333;49.798;10.968;2023-08-07T09:46:09;4.53;;;1.10;;
49728;SDS011;66333;49.798;10.968;2023-08-07T09:48:45;3.53;;;1.20;;
49728;SDS011;66333;49.798;10.968;2023-08-07T09:51:13;3.70;;;1.10;;
49728;SDS011;66333;49.798;10.968;2023-08-07T09:53:43;3.60;;;1.20;;
49728;SDS011;66333;49.798;10.968;2023-08-07T09:56:14;3.20;;;1.08;;
49728;SDS011;66333;49.798;10.968;2023-08-07T09:58:49;6.30;;;1.40;;
49728;SDS011;66333;49.798;10.968;2023-08-07T10:01:23;2.88;;;0.98;;
49728;SDS011;66333;49.798;10.968;2023-08-07T10:03:55;3.83;;;1.25;;
49728;SDS011;66333;49.798;10.968;2023-08-07T10:06:27;4.40;;;1.30;;
49728;SDS011;66333;49.798;10.968;2023-08-07T10:08:57;4.95;;;2.05;;
49728;SDS011;66333;49.798;10.968;2023-08-07T10:11:30;3.92;;;1.30;;
49728;SDS011;66333;49.798;10.968;2023-08-07T10:13:58;3.47;;;1.10;;
49728;SDS011;66333;49.798;10.968;2023-08-07T10:16:27;4.22;;;1.13;;
49728;SDS011;66333;49.798;10.968;2023-08-07T10:19:01;3.92;;;1.23;;
49728;SDS011;66333;49.798;10.968;2023-08-07T10:21:29;4.07;;;1.38;;
49728;SDS011;66333;49.798;10.968;2023-08-07T10:23:59;3.95;;;1.30;;
49728;SDS011;66333;49.798;10.968;2023-08-07T10:26:33;3.20;;;1.17;;
49728;SDS011;66333;49.798;10.968;2023-08-07T10:29:10;3.72;;;1.40;;
49728;SDS011;66333;49.798;10.968;2023-08-07T10:31:44;3.88;;;1.35;;
49728;SDS011;66333;49.798;10.968;2023-08-07T10:34:32;3.47;;;1.40;;
49728;SDS011;66333;49.798;10.968;2023-08-07T10:37:00;3.55;;;1.40;;
49728;SDS011;66333;49.798;10.968;2023-08-07T10:39:30;4.25;;;1.30;;
49728;SDS011;66333;49.798;10.968;2023-08-07T10:42:01;3.53;;;1.23;;
49728;SDS011;66333;49.798;10.968;2023-08-07T10:44:47;3.83;;;1.35;;
49728;SDS011;66333;49.798;10.968;2023-08-07T10:47:25;3.05;;;1.20;;
49728;SDS011;66333;49.798;10.968;2023-08-07T10:52:38;3.22;;;1.17;;
49728;SDS011;66333;49.798;10.968;2023-08-07T10:55:12;4.00;;;1.40;;
49728;SDS011;66333;49.798;10.968;2023-08-07T10:57:43;4.55;;;1.50;;
49728;SDS011;66333;49.798;10.968;2023-08-07T11:00:19;3.35;;;1.30;;
49728;SDS011;66333;49.798;10.968;2023-08-07T11:02:56;3.33;;;1.30;;
49728;SDS011;66333;49.798;10.968;2023-08-07T11:05:44;3.97;;;1.15;;
49728;SDS011;66333;49.798;10.968;2023-08-07T11:08:12;3.50;;;1.40;;
49728;SDS011;66333;49.798;10.968;2023-08-07T11:10:42;4.18;;;1.40;;
49728;SDS011;66333;49.798;10.968;2023-08-07T11:13:12;4.15;;;1.48;;
49728;SDS011;66333;49.798;10.968;2023-08-07T11:15:43;3.67;;;1.13;;
49728;SDS011;66333;49.798;10.968;2023-08-07T11:18:11;4.15;;;1.58;;
49728;SDS011;66333;49.798;10.968;2023-08-07T11:20:58;3.80;;;1.25;;
49728;SDS011;66333;49.798;10.968;2023-08-07T11:23:29;3.25;;;1.30;;
49728;SDS011;66333;49.798;10.968;2023-08-07T11:25:57;3.45;;;1.25;;
49728;SDS011;66333;49.798;10.968;2023-08-07T11:28:27;3.55;;;1.30;;
49728;SDS011;66333;49.798;10.968;2023-08-07T11:30:57;3.95;;;1.50;;
49728;SDS011;66333;49.798;10.968;2023-08-07T11:33:29;4.20;;;1.65;;
49728;SDS011;66333;49.798;10.968;2023-08-07T11:36:01;3.65;;;1.45;;
49728;SDS011;66333;49.798;10.968;2023-08-07T11:38:31;3.90;;;1.60;;
49728;SDS011;66333;49.798;10.968;2023-08-07T11:41:10;3.83;;;1.30;;
49728;SDS011;66333;49.798;10.968;2023-08-07T11:43:46;4.10;;;1.70;;
49728;SDS011;66333;49.798;10.968;2023-08-07T11:46:15;3.78;;;1.27;;
49728;SDS011;66333;49.798;10.968;2023-08-07T11:48:43;5.03;;;1.90;;
49728;SDS011;66333;49.798;10.968;2023-08-07T11:51:15;7.32;;;1.80;;
49728;SDS011;66333;49.798;10.968;2023-08-07T11:53:51;5.55;;;1.83;;
49728;SDS011;66333;49.798;10.968;2023-08-07T11:56:26;5.57;;;1.40;;
49728;SDS011;66333;49.798;10.968;2023-08-07T11:58:57;5.82;;;1.80;;
49728;SDS011;66333;49.798;10.968;2023-08-07T12:01:26;4.60;;;1.63;;
49728;SDS011;66333;49.798;10.968;2023-08-07T12:04:09;8.10;;;1.83;;
49728;SDS011;66333;49.798;10.968;2023-08-07T12:09:28;4.78;;;1.50;;
49728;SDS011;66333;49.798;10.968;2023-08-07T12:11:58;3.83;;;1.50;;
49728;SDS011;66333;49.798;10.968;2023-08-07T12:14:28;4.70;;;1.40;;
49728;SDS011;66333;49.798;10.968;2023-08-07T12:16:57;5.00;;;1.65;;
49728;SDS011;66333;49.798;10.968;2023-08-07T12:19:35;3.67;;;1.33;;
49728;SDS011;66333;49.798;10.968;2023-08-07T12:22:08;5.50;;;1.63;;
49728;SDS011;66333;49.798;10.968;2023-08-07T12:24:42;6.97;;;1.67;;
49728;SDS011;66333;49.798;10.968;2023-08-07T12:27:10;8.18;;;1.98;;
49728;SDS011;66333;49.798;10.968;2023-08-07T12:29:39;5.15;;;2.15;;
49728;SDS011;66333;49.798;10.968;2023-08-07T12:32:09;6.32;;;1.65;;
49728;SDS011;66333;49.798;10.968;2023-08-07T12:34:39;7.22;;;2.05;;
49728;SDS011;66333;49.798;10.968;2023-08-07T12:37:20;9.10;;;1.55;;
49728;SDS011;66333;49.798;10.968;2023-08-07T12:39:50;11.38;;;2.28;;
49728;SDS011;66333;49.798;10.968;2023-08-07T12:42:17;12.27;;;1.80;;
49728;SDS011;66333;49.798;10.968;2023-08-07T12:44:47;7.65;;;1.70;;
49728;SDS011;66333;49.798;10.968;2023-08-07T12:47:18;10.10;;;2.00;;
49728;SDS011;66333;49.798;10.968;2023-08-07T12:49:48;14.10;;;2.75;;
49728;SDS011;66333;49.798;10.968;2023-08-07T12:52:19;13.40;;;1.98;;
49728;SDS011;66333;49.798;10.968;2023-08-07T12:54:49;10.43;;;1.80;;
49728;SDS011;66333;49.798;10.968;2023-08-07T12:57:31;6.00;;;1.77;;
49728;SDS011;66333;49.798;10.968;2023-08-07T12:59:58;5.68;;;1.45;;
49728;SDS011;66333;49.798;10.968;2023-08-07T13:02:28;4.88;;;1.50;;
49728;SDS011;66333;49.798;10.968;2023-08-07T13:04:58;5.20;;;1.40;;
49728;SDS011;66333;49.798;10.968;2023-08-07T13:07:30;5.28;;;1.60;;
49728;SDS011;66333;49.798;10.968;2023-08-07T13:10:06;7.70;;;1.88;;
49728;SDS011;66333;49.798;10.968;2023-08-07T13:12:37;5.22;;;1.38;;
49728;SDS011;66333;49.798;10.968;2023-08-07T13:15:08;4.22;;;1.30;;
49728;SDS011;66333;49.798;10.968;2023-08-07T13:17:40;9.18;;;2.05;;
49728;SDS011;66333;49.798;10.968;2023-08-07T13:20:16;4.00;;;1.58;;
49728;SDS011;66333;49.798;10.968;2023-08-07T13:23:05;4.75;;;1.35;;
49728;SDS011;66333;49.798;10.968;2023-08-07T13:25:34;6.53;;;1.50;;
49728;SDS011;66333;49.798;10.968;2023-08-07T13:28:03;3.50;;;1.20;;
49728;SDS011;66333;49.798;10.968;2023-08-07T13:30:33;6.80;;;1.70;;
49728;SDS011;66333;49.798;10.968;2023-08-07T13:33:01;4.90;;;1.38;;
49728;SDS011;66333;49.798;10.968;2023-08-07T13:35:36;4.75;;;1.63;;
49728;SDS011;66333;49.798;10.968;2023-08-07T13:38:18;3.80;;;1.20;;
49728;SDS011;66333;49.798;10.968;2023-08-07T13:40:48;4.07;;;1.30;;
49728;SDS011;66333;49.798;10.968;2023-08-07T13:43:17;4.47;;;1.30;;
49728;SDS011;66333;49.798;10.968;2023-08-07T13:45:47;3.60;;;1.50;;
49728;SDS011;66333;49.798;10.968;2023-08-07T13:48:17;3.78;;;1.10;;
49728;SDS011;66333;49.798;10.968;2023-08-07T13:50:47;3.90;;;1.15;;
49728;SDS011;66333;49.798;10.968;2023-08-07T13:53:20;3.63;;;1.30;;
49728;SDS011;66333;49.798;10.968;2023-08-07T13:55:50;3.20;;;1.20;;
49728;SDS011;66333;49.798;10.968;2023-08-07T13:58:20;3.85;;;1.20;;
49728;SDS011;66333;49.798;10.968;2023-08-07T14:00:49;4.35;;;1.48;;
49728;SDS011;66333;49.798;10.968;2023-08-07T14:03:19;4.22;;;1.30;;
49728;SDS011;66333;49.798;10.968;2023-08-07T14:05:55;4.00;;;1.20;;
49728;SDS011;66333;49.798;10.968;2023-08-07T14:08:37;5.03;;;1.55;;
49728;SDS011;66333;49.798;10.968;2023-08-07T14:11:07;3.38;;;1.20;;
49728;SDS011;66333;49.798;10.968;2023-08-07T14:13:37;5.80;;;1.70;;
49728;SDS011;66333;49.798;10.968;2023-08-07T14:16:14;5.90;;;1.48;;
49728;SDS011;66333;49.798;10.968;2023-08-07T14:18:55;5.28;;;1.40;;
49728;SDS011;66333;49.798;10.968;2023-08-07T14:21:25;3.00;;;1.10;;
49728;SDS011;66333;49.798;10.968;2023-08-07T14:23:58;4.78;;;1.42;;
49728;SDS011;66333;49.798;10.968;2023-08-07T14:26:27;3.38;;;1.10;;
49728;SDS011;66333;49.798;10.968;2023-08-07T14:28:55;4.15;;;1.48;;
49728;SDS011;66333;49.798;10.968;2023-08-07T14:31:23;3.35;;;1.10;;
49728;SDS011;66333;49.798;10.968;2023-08-07T14:33:50;3.90;;;1.25;;
49728;SDS011;66333;49.798;10.968;2023-08-07T14:36:17;4.07;;;1.52;;
49728;SDS011;66333;49.798;10.968;2023-08-07T14:38:47;3.83;;;1.20;;
49728;SDS011;66333;49.798;10.968;2023-08-07T14:41:19;3.88;;;1.40;;
49728;SDS011;66333;49.798;10.968;2023-08-07T14:43:48;4.10;;;1.40;;
49728;SDS011;66333;49.798;10.968;2023-08-07T14:46:16;3.63;;;1.35;;
49728;SDS011;66333;49.798;10.968;2023-08-07T14:48:44;4.15;;;1.42;;
49728;SDS011;66333;49.798;10.968;2023-08-07T14:51:19;4.18;;;1.33;;
49728;SDS011;66333;49.798;10.968;2023-08-07T14:53:48;3.75;;;1.30;;
49728;SDS011;66333;49.798;10.968;2023-08-07T14:56:20;3.80;;;1.20;;
49728;SDS011;66333;49.798;10.968;2023-08-07T14:58:51;4.65;;;1.45;;
49728;SDS011;66333;49.798;10.968;2023-08-07T15:01:21;3.97;;;1.30;;
49728;SDS011;66333;49.798;10.968;2023-08-07T15:03:51;3.95;;;1.40;;
49728;SDS011;66333;49.798;10.968;2023-08-07T15:06:27;3.80;;;1.30;;
49728;SDS011;66333;49.798;10.968;2023-08-07T15:08:55;3.95;;;1.30;;
49728;SDS011;66333;49.798;10.968;2023-08-07T15:11:27;3.28;;;1.30;;